sensor_id;sensor_type;location;lat;lon;timestamp;P1;durP1;ratioP1;P2;durP2;ratioP2
10132;SDS011;5106;50.926;7.080;2023-05-07T00:00:40;4.38;;;3.22;;
10132;SDS011;5106;50.926;7.080;2023-05-07T00:03:05;4.10;;;3.17;;
10132;SDS011;5106;50.926;7.080;2023-05-07T00:05:31;3.17;;;2.88;;
10132;SDS011;5106;50.926;7.080;2023-05-07T00:07:57;3.10;;;2.80;;
10132;SDS011;5106;50.926;7.080;2023-05-07T00:10:22;4.18;;;2.90;;
10132;SDS011;5106;50.926;7.080;2023-05-07T00:12:48;3.72;;;2.65;;
10132;SDS011;5106;50.926;7.080;2023-05-07T00:15:14;2.60;;;2.40;;
10132;SDS011;5106;50.926;7.080;2023-05-07T00:17:40;2.95;;;2.72;;
10132;SDS011;5106;50.926;7.080;2023-05-07T00:20:06;2.47;;;2.28;;
10132;SDS011;5106;50.926;7.080;2023-05-07T00:22:32;2.45;;;2.25;;
10132;SDS011;5106;50.926;7.080;2023-05-07T00:24:58;3.13;;;2.42;;
10132;SDS011;5106;50.926;7.080;2023-05-07T00:27:24;3.78;;;2.53;;
10132;SDS011;5106;50.926;7.080;2023-05-07T00:29:50;3.08;;;2.63;;
10132;SDS011;5106;50.926;7.080;2023-05-07T00:32:15;2.83;;;2.58;;
10132;SDS011;5106;50.926;7.080;2023-05-07T00:34:41;5.80;;;2.80;;
10132;SDS011;5106;50.926;7.080;2023-05-07T00:37:07;3.38;;;2.60;;
10132;SDS011;5106;50.926;7.080;2023-05-07T00:39:33;3.80;;;2.50;;
10132;SDS011;5106;50.926;7.080;2023-05-07T00:41:59;2.70;;;2.38;;
10132;SDS011;5106;50.926;7.080;2023-05-07T00:44:25;2.30;;;2.10;;
10132;SDS011;5106;50.926;7.080;2023-05-07T00:46:52;5.30;;;2.42;;
10132;SDS011;5106;50.926;7.080;2023-05-07T00:49:19;2.55;;;2.35;;
10132;SDS011;5106;50.926;7.080;2023-05-07T00:51:45;2.80;;;2.50;;
10132;SDS011;5106;50.926;7.080;2023-05-07T00:54:11;2.22;;;2.03;;
10132;SDS011;5106;50.926;7.080;2023-05-07T00:56:38;2.47;;;2.28;;
10132;SDS011;5106;50.926;7.080;2023-05-07T00:59:04;2.60;;;2.10;;
10132;SDS011;5106;50.926;7.080;2023-05-07T01:01:31;3.92;;;2.60;;
10132;SDS011;5106;50.926;7.080;2023-05-07T01:03:57;3.25;;;2.30;;
10132;SDS011;5106;50.926;7.080;2023-05-07T01:06:23;2.53;;;2.22;;
10132;SDS011;5106;50.926;7.080;2023-05-07T01:08:52;2.92;;;2.30;;
10132;SDS011;5106;50.926;7.080;2023-05-07T01:11:21;3.22;;;2.00;;
10132;SDS011;5106;50.926;7.080;2023-05-07T01:13:47;2.22;;;2.00;;
10132;SDS011;5106;50.926;7.080;2023-05-07T01:16:15;3.85;;;2.28;;
10132;SDS011;5106;50.926;7.080;2023-05-07T01:18:41;3.88;;;2.10;;
10132;SDS011;5106;50.926;7.080;2023-05-07T01:21:06;2.28;;;2.08;;
10132;SDS011;5106;50.926;7.080;2023-05-07T01:23:35;3.85;;;2.30;;
10132;SDS011;5106;50.926;7.080;2023-05-07T01:26:01;2.33;;;2.03;;
10132;SDS011;5106;50.926;7.080;2023-05-07T01:28:27;2.42;;;2.20;;
10132;SDS011;5106;50.926;7.080;2023-05-07T01:30:54;3.20;;;2.47;;
10132;SDS011;5106;50.926;7.080;2023-05-07T01:33:21;2.33;;;2.13;;
10132;SDS011;5106;50.926;7.080;2023-05-07T01:35:48;3.22;;;2.10;;
10132;SDS011;5106;50.926;7.080;2023-05-07T01:38:16;2.75;;;2.20;;
10132;SDS011;5106;50.926;7.080;2023-05-07T01:40:42;3.08;;;2.05;;
10132;SDS011;5106;50.926;7.080;2023-05-07T01:43:08;2.47;;;2.25;;
10132;SDS011;5106;50.926;7.080;2023-05-07T01:45:35;2.95;;;2.15;;
10132;SDS011;5106;50.926;7.080;2023-05-07T01:48:02;3.33;;;2.30;;
10132;SDS011;5106;50.926;7.080;2023-05-07T01:50:28;3.53;;;2.15;;
10132;SDS011;5106;50.926;7.080;2023-05-07T01:52:55;2.63;;;2.17;;
10132;SDS011;5106;50.926;7.080;2023-05-07T01:55:21;2.33;;;2.03;;
10132;SDS011;5106;50.926;7.080;2023-05-07T01:57:47;2.05;;;1.90;;
10132;SDS011;5106;50.926;7.080;2023-05-07T02:00:12;2.30;;;2.10;;
10132;SDS011;5106;50.926;7.080;2023-05-07T02:02:38;2.50;;;2.15;;
10132;SDS011;5106;50.926;7.080;2023-05-07T02:05:04;2.20;;;2.00;;
10132;SDS011;5106;50.926;7.080;2023-05-07T02:07:30;3.40;;;2.08;;
10132;SDS011;5106;50.926;7.080;2023-05-07T02:09:58;2.30;;;2.10;;
10132;SDS011;5106;50.926;7.080;2023-05-07T02:12:24;3.40;;;2.17;;
10132;SDS011;5106;50.926;7.080;2023-05-07T02:14:49;2.65;;;2.13;;
10132;SDS011;5106;50.926;7.080;2023-05-07T02:17:15;3.85;;;2.35;;
10132;SDS011;5106;50.926;7.080;2023-05-07T02:19:41;4.13;;;2.35;;
10132;SDS011;5106;50.926;7.080;2023-05-07T02:22:07;2.97;;;2.08;;
10132;SDS011;5106;50.926;7.080;2023-05-07T02:24:32;2.63;;;2.20;;
10132;SDS011;5106;50.926;7.080;2023-05-07T02:26:58;2.80;;;2.40;;
10132;SDS011;5106;50.926;7.080;2023-05-07T02:29:23;4.57;;;2.05;;
10132;SDS011;5106;50.926;7.080;2023-05-07T02:31:49;2.75;;;2.08;;
10132;SDS011;5106;50.926;7.080;2023-05-07T02:34:16;3.25;;;2.47;;
10132;SDS011;5106;50.926;7.080;2023-05-07T02:36:42;2.40;;;2.15;;
10132;SDS011;5106;50.926;7.080;2023-05-07T02:39:07;2.20;;;2.00;;
10132;SDS011;5106;50.926;7.080;2023-05-07T02:41:37;5.40;;;2.17;;
10132;SDS011;5106;50.926;7.080;2023-05-07T02:44:05;2.72;;;2.40;;
10132;SDS011;5106;50.926;7.080;2023-05-07T02:46:31;3.25;;;2.03;;
10132;SDS011;5106;50.926;7.080;2023-05-07T02:48:56;2.53;;;2.20;;
10132;SDS011;5106;50.926;7.080;2023-05-07T02:51:22;2.38;;;2.00;;
10132;SDS011;5106;50.926;7.080;2023-05-07T02:53:48;2.22;;;2.03;;
10132;SDS011;5106;50.926;7.080;2023-05-07T02:56:13;2.40;;;2.17;;
10132;SDS011;5106;50.926;7.080;2023-05-07T02:58:39;3.80;;;2.40;;
10132;SDS011;5106;50.926;7.080;2023-05-07T03:01:05;2.65;;;2.40;;
10132;SDS011;5106;50.926;7.080;2023-05-07T03:03:31;2.58;;;2.38;;
10132;SDS011;5106;50.926;7.080;2023-05-07T03:05:57;2.63;;;2.35;;
10132;SDS011;5106;50.926;7.080;2023-05-07T03:08:22;2.75;;;2.17;;
10132;SDS011;5106;50.926;7.080;2023-05-07T03:10:50;3.58;;;2.00;;
10132;SDS011;5106;50.926;7.080;2023-05-07T03:13:16;2.38;;;2.15;;
10132;SDS011;5106;50.926;7.080;2023-05-07T03:15:41;2.45;;;2.00;;
10132;SDS011;5106;50.926;7.080;2023-05-07T03:18:07;2.13;;;1.92;;
10132;SDS011;5106;50.926;7.080;2023-05-07T03:20:33;2.30;;;2.10;;
10132;SDS011;5106;50.926;7.080;2023-05-07T03:22:58;3.92;;;2.20;;
10132;SDS011;5106;50.926;7.080;2023-05-07T03:25:24;3.35;;;2.10;;
10132;SDS011;5106;50.926;7.080;2023-05-07T03:27:50;5.82;;;2.15;;
10132;SDS011;5106;50.926;7.080;2023-05-07T03:30:15;1.90;;;1.75;;
10132;SDS011;5106;50.926;7.080;2023-05-07T03:32:41;2.28;;;1.90;;
10132;SDS011;5106;50.926;7.080;2023-05-07T03:35:06;3.63;;;2.15;;
10132;SDS011;5106;50.926;7.080;2023-05-07T03:37:32;2.65;;;2.15;;
10132;SDS011;5106;50.926;7.080;2023-05-07T03:39:58;2.72;;;2.00;;
10132;SDS011;5106;50.926;7.080;2023-05-07T03:42:23;3.97;;;2.13;;
10132;SDS011;5106;50.926;7.080;2023-05-07T03:44:49;3.22;;;2.30;;
10132;SDS011;5106;50.926;7.080;2023-05-07T03:47:15;2.50;;;2.08;;
10132;SDS011;5106;50.926;7.080;2023-05-07T03:49:40;2.10;;;1.90;;
10132;SDS011;5106;50.926;7.080;2023-05-07T03:52:06;1.90;;;1.80;;
10132;SDS011;5106;50.926;7.080;2023-05-07T03:54:32;2.83;;;1.80;;
10132;SDS011;5106;50.926;7.080;2023-05-07T03:56:57;4.72;;;1.90;;
10132;SDS011;5106;50.926;7.080;2023-05-07T03:59:23;2.00;;;1.85;;
10132;SDS011;5106;50.926;7.080;2023-05-07T04:01:48;2.42;;;2.00;;
10132;SDS011;5106;50.926;7.080;2023-05-07T04:04:14;2.10;;;1.90;;
10132;SDS011;5106;50.926;7.080;2023-05-07T04:06:40;2.35;;;1.90;;
10132;SDS011;5106;50.926;7.080;2023-05-07T04:09:06;2.90;;;2.20;;
10132;SDS011;5106;50.926;7.080;2023-05-07T04:11:32;2.30;;;1.90;;
10132;SDS011;5106;50.926;7.080;2023-05-07T04:13:58;3.97;;;2.20;;
10132;SDS011;5106;50.926;7.080;2023-05-07T04:16:23;4.30;;;2.13;;
10132;SDS011;5106;50.926;7.080;2023-05-07T04:18:49;4.95;;;2.22;;
10132;SDS011;5106;50.926;7.080;2023-05-07T04:21:15;3.03;;;2.15;;
10132;SDS011;5106;50.926;7.080;2023-05-07T04:23:41;2.97;;;2.00;;
10132;SDS011;5106;50.926;7.080;2023-05-07T04:26:07;2.63;;;2.17;;
10132;SDS011;5106;50.926;7.080;2023-05-07T04:28:33;2.13;;;1.90;;
10132;SDS011;5106;50.926;7.080;2023-05-07T04:30:59;5.13;;;2.10;;
10132;SDS011;5106;50.926;7.080;2023-05-07T04:33:25;2.40;;;2.20;;
10132;SDS011;5106;50.926;7.080;2023-05-07T04:35:50;2.22;;;2.00;;
10132;SDS011;5106;50.926;7.080;2023-05-07T04:38:16;5.82;;;2.22;;
10132;SDS011;5106;50.926;7.080;2023-05-07T04:40:43;6.10;;;2.42;;
10132;SDS011;5106;50.926;7.080;2023-05-07T04:43:09;2.38;;;2.13;;
10132;SDS011;5106;50.926;7.080;2023-05-07T04:45:35;3.53;;;2.20;;
10132;SDS011;5106;50.926;7.080;2023-05-07T04:48:01;3.20;;;2.22;;
10132;SDS011;5106;50.926;7.080;2023-05-07T04:50:27;2.33;;;2.00;;
10132;SDS011;5106;50.926;7.080;2023-05-07T04:52:52;3.83;;;2.40;;
10132;SDS011;5106;50.926;7.080;2023-05-07T04:55:18;2.42;;;2.22;;
10132;SDS011;5106;50.926;7.080;2023-05-07T04:57:44;4.50;;;1.90;;
10132;SDS011;5106;50.926;7.080;2023-05-07T05:00:10;3.97;;;1.95;;
10132;SDS011;5106;50.926;7.080;2023-05-07T05:02:39;3.15;;;2.15;;
10132;SDS011;5106;50.926;7.080;2023-05-07T05:05:05;1.90;;;1.80;;
10132;SDS011;5106;50.926;7.080;2023-05-07T05:07:31;3.60;;;1.88;;
10132;SDS011;5106;50.926;7.080;2023-05-07T05:09:56;3.08;;;2.22;;
10132;SDS011;5106;50.926;7.080;2023-05-07T05:12:22;3.38;;;2.45;;
10132;SDS011;5106;50.926;7.080;2023-05-07T05:14:48;3.08;;;2.10;;
10132;SDS011;5106;50.926;7.080;2023-05-07T05:17:14;2.70;;;1.90;;
10132;SDS011;5106;50.926;7.080;2023-05-07T05:19:40;2.92;;;2.10;;
10132;SDS011;5106;50.926;7.080;2023-05-07T05:22:05;3.75;;;1.75;;
10132;SDS011;5106;50.926;7.080;2023-05-07T05:24:31;2.20;;;2.00;;
10132;SDS011;5106;50.926;7.080;2023-05-07T05:26:57;7.22;;;2.38;;
10132;SDS011;5106;50.926;7.080;2023-05-07T05:29:24;2.30;;;2.10;;
10132;SDS011;5106;50.926;7.080;2023-05-07T05:31:50;2.40;;;1.98;;
10132;SDS011;5106;50.926;7.080;2023-05-07T05:34:15;2.70;;;2.50;;
10132;SDS011;5106;50.926;7.080;2023-05-07T05:36:42;2.80;;;2.25;;
10132;SDS011;5106;50.926;7.080;2023-05-07T05:39:08;2.33;;;2.13;;
10132;SDS011;5106;50.926;7.080;2023-05-07T05:41:34;2.45;;;2.25;;
10132;SDS011;5106;50.926;7.080;2023-05-07T05:43:59;4.85;;;2.08;;
10132;SDS011;5106;50.926;7.080;2023-05-07T05:46:25;6.22;;;2.95;;
10132;SDS011;5106;50.926;7.080;2023-05-07T05:48:50;3.25;;;2.50;;
10132;SDS011;5106;50.926;7.080;2023-05-07T05:51:16;2.10;;;1.90;;
10132;SDS011;5106;50.926;7.080;2023-05-07T05:53:42;2.58;;;2.38;;
10132;SDS011;5106;50.926;7.080;2023-05-07T05:56:07;7.55;;;2.70;;
10132;SDS011;5106;50.926;7.080;2023-05-07T05:58:33;10.38;;;3.10;;
10132;SDS011;5106;50.926;7.080;2023-05-07T06:00:59;8.13;;;3.42;;
10132;SDS011;5106;50.926;7.080;2023-05-07T06:03:24;10.13;;;3.53;;
10132;SDS011;5106;50.926;7.080;2023-05-07T06:05:51;8.65;;;3.50;;
10132;SDS011;5106;50.926;7.080;2023-05-07T06:08:16;9.93;;;2.90;;
10132;SDS011;5106;50.926;7.080;2023-05-07T06:10:43;6.35;;;3.20;;
10132;SDS011;5106;50.926;7.080;2023-05-07T06:13:09;9.18;;;2.85;;
10132;SDS011;5106;50.926;7.080;2023-05-07T06:15:34;4.47;;;2.35;;
10132;SDS011;5106;50.926;7.080;2023-05-07T06:18:00;2.40;;;2.20;;
10132;SDS011;5106;50.926;7.080;2023-05-07T06:20:25;3.50;;;2.63;;
10132;SDS011;5106;50.926;7.080;2023-05-07T06:22:51;2.53;;;2.17;;
10132;SDS011;5106;50.926;7.080;2023-05-07T06:25:17;2.70;;;2.50;;
10132;SDS011;5106;50.926;7.080;2023-05-07T06:27:42;3.60;;;2.38;;
10132;SDS011;5106;50.926;7.080;2023-05-07T06:30:08;3.45;;;2.30;;
10132;SDS011;5106;50.926;7.080;2023-05-07T06:32:33;7.32;;;2.67;;
10132;SDS011;5106;50.926;7.080;2023-05-07T06:34:59;4.65;;;2.38;;
10132;SDS011;5106;50.926;7.080;2023-05-07T06:37:25;2.65;;;2.30;;
10132;SDS011;5106;50.926;7.080;2023-05-07T06:39:50;2.67;;;2.17;;
10132;SDS011;5106;50.926;7.080;2023-05-07T06:42:16;2.55;;;2.30;;
10132;SDS011;5106;50.926;7.080;2023-05-07T06:44:42;3.47;;;2.30;;
10132;SDS011;5106;50.926;7.080;2023-05-07T06:47:07;4.07;;;2.30;;
10132;SDS011;5106;50.926;7.080;2023-05-07T06:49:33;4.30;;;2.50;;
10132;SDS011;5106;50.926;7.080;2023-05-07T06:51:58;4.05;;;2.45;;
10132;SDS011;5106;50.926;7.080;2023-05-07T06:54:24;2.95;;;2.20;;
10132;SDS011;5106;50.926;7.080;2023-05-07T06:56:50;2.75;;;2.55;;
10132;SDS011;5106;50.926;7.080;2023-05-07T06:59:15;5.28;;;2.70;;
10132;SDS011;5106;50.926;7.080;2023-05-07T07:01:41;2.42;;;2.22;;
10132;SDS011;5106;50.926;7.080;2023-05-07T07:04:07;4.63;;;2.20;;
10132;SDS011;5106;50.926;7.080;2023-05-07T07:06:32;2.63;;;2.30;;
10132;SDS011;5106;50.926;7.080;2023-05-07T07:08:58;2.88;;;2.28;;
10132;SDS011;5106;50.926;7.080;2023-05-07T07:11:24;3.55;;;2.50;;
10132;SDS011;5106;50.926;7.080;2023-05-07T07:13:50;2.60;;;2.10;;
10132;SDS011;5106;50.926;7.080;2023-05-07T07:16:16;3.42;;;2.38;;
10132;SDS011;5106;50.926;7.080;2023-05-07T07:18:41;2.97;;;2.10;;
10132;SDS011;5106;50.926;7.080;2023-05-07T07:21:07;3.30;;;2.03;;
10132;SDS011;5106;50.926;7.080;2023-05-07T07:23:33;2.42;;;2.22;;
10132;SDS011;5106;50.926;7.080;2023-05-07T07:25:58;3.20;;;2.35;;
10132;SDS011;5106;50.926;7.080;2023-05-07T07:28:24;3.75;;;2.15;;
10132;SDS011;5106;50.926;7.080;2023-05-07T07:30:49;2.45;;;2.03;;
10132;SDS011;5106;50.926;7.080;2023-05-07T07:33:15;2.67;;;2.17;;
10132;SDS011;5106;50.926;7.080;2023-05-07T07:35:41;4.00;;;2.03;;
10132;SDS011;5106;50.926;7.080;2023-05-07T07:38:06;4.72;;;2.22;;
10132;SDS011;5106;50.926;7.080;2023-05-07T07:40:34;3.10;;;1.92;;
10132;SDS011;5106;50.926;7.080;2023-05-07T07:42:59;2.55;;;2.00;;
10132;SDS011;5106;50.926;7.080;2023-05-07T07:45:26;2.70;;;1.98;;
10132;SDS011;5106;50.926;7.080;2023-05-07T07:47:51;2.90;;;2.47;;
10132;SDS011;5106;50.926;7.080;2023-05-07T07:50:17;3.53;;;2.00;;
10132;SDS011;5106;50.926;7.080;2023-05-07T07:52:43;5.35;;;2.30;;
10132;SDS011;5106;50.926;7.080;2023-05-07T07:55:09;2.55;;;2.03;;
10132;SDS011;5106;50.926;7.080;2023-05-07T07:57:35;2.67;;;1.92;;
10132;SDS011;5106;50.926;7.080;2023-05-07T08:00:00;4.93;;;2.00;;
10132;SDS011;5106;50.926;7.080;2023-05-07T08:02:26;3.05;;;2.08;;
10132;SDS011;5106;50.926;7.080;2023-05-07T08:04:52;2.38;;;1.95;;
10132;SDS011;5106;50.926;7.080;2023-05-07T08:07:17;2.72;;;1.92;;
10132;SDS011;5106;50.926;7.080;2023-05-07T08:09:45;2.25;;;1.77;;
10132;SDS011;5106;50.926;7.080;2023-05-07T08:12:11;2.88;;;1.77;;
10132;SDS011;5106;50.926;7.080;2023-05-07T08:14:38;2.42;;;1.92;;
10132;SDS011;5106;50.926;7.080;2023-05-07T08:17:04;2.30;;;1.70;;
10132;SDS011;5106;50.926;7.080;2023-05-07T08:19:29;2.53;;;1.80;;
10132;SDS011;5106;50.926;7.080;2023-05-07T08:21:55;3.13;;;1.85;;
10132;SDS011;5106;50.926;7.080;2023-05-07T08:24:20;2.13;;;1.70;;
10132;SDS011;5106;50.926;7.080;2023-05-07T08:26:46;3.75;;;1.73;;
10132;SDS011;5106;50.926;7.080;2023-05-07T08:29:11;1.95;;;1.60;;
10132;SDS011;5106;50.926;7.080;2023-05-07T08:31:37;1.90;;;1.70;;
10132;SDS011;5106;50.926;7.080;2023-05-07T08:34:05;3.40;;;1.67;;
10132;SDS011;5106;50.926;7.080;2023-05-07T08:36:31;1.90;;;1.70;;
10132;SDS011;5106;50.926;7.080;2023-05-07T08:38:57;2.42;;;1.77;;
10132;SDS011;5106;50.926;7.080;2023-05-07T08:41:23;3.67;;;1.77;;
10132;SDS011;5106;50.926;7.080;2023-05-07T08:43:49;2.20;;;1.65;;
10132;SDS011;5106;50.926;7.080;2023-05-07T08:46:17;3.72;;;1.65;;
10132;SDS011;5106;50.926;7.080;2023-05-07T08:48:44;4.88;;;1.95;;
10132;SDS011;5106;50.926;7.080;2023-05-07T08:51:15;2.28;;;1.80;;
10132;SDS011;5106;50.926;7.080;2023-05-07T08:53:42;2.15;;;1.73;;
10132;SDS011;5106;50.926;7.080;2023-05-07T08:56:08;3.13;;;1.75;;
10132;SDS011;5106;50.926;7.080;2023-05-07T08:58:34;2.08;;;1.73;;
10132;SDS011;5106;50.926;7.080;2023-05-07T09:01:07;3.15;;;1.70;;
10132;SDS011;5106;50.926;7.080;2023-05-07T09:03:40;2.72;;;1.67;;
10132;SDS011;5106;50.926;7.080;2023-05-07T09:06:09;1.77;;;1.60;;
10132;SDS011;5106;50.926;7.080;2023-05-07T09:08:35;2.47;;;1.73;;
10132;SDS011;5106;50.926;7.080;2023-05-07T09:11:01;1.73;;;1.45;;
10132;SDS011;5106;50.926;7.080;2023-05-07T09:13:27;2.20;;;1.77;;
10132;SDS011;5106;50.926;7.080;2023-05-07T09:15:53;2.03;;;1.60;;
10132;SDS011;5106;50.926;7.080;2023-05-07T09:18:19;2.70;;;1.65;;
10132;SDS011;5106;50.926;7.080;2023-05-07T09:20:45;1.90;;;1.80;;
10132;SDS011;5106;50.926;7.080;2023-05-07T09:23:10;2.47;;;1.70;;
10132;SDS011;5106;50.926;7.080;2023-05-07T09:25:36;3.08;;;1.70;;
10132;SDS011;5106;50.926;7.080;2023-05-07T09:28:02;1.55;;;1.45;;
10132;SDS011;5106;50.926;7.080;2023-05-07T09:30:30;2.05;;;1.70;;
10132;SDS011;5106;50.926;7.080;2023-05-07T09:32:57;2.38;;;1.70;;
10132;SDS011;5106;50.926;7.080;2023-05-07T09:35:24;2.72;;;1.48;;
10132;SDS011;5106;50.926;7.080;2023-05-07T09:37:55;3.03;;;1.70;;
10132;SDS011;5106;50.926;7.080;2023-05-07T09:40:23;2.20;;;1.60;;
10132;SDS011;5106;50.926;7.080;2023-05-07T09:42:53;2.17;;;1.75;;
10132;SDS011;5106;50.926;7.080;2023-05-07T09:45:26;6.10;;;1.88;;
10132;SDS011;5106;50.926;7.080;2023-05-07T09:47:56;3.47;;;1.80;;
10132;SDS011;5106;50.926;7.080;2023-05-07T09:50:27;2.13;;;1.88;;
10132;SDS011;5106;50.926;7.080;2023-05-07T09:52:54;2.05;;;1.65;;
10132;SDS011;5106;50.926;7.080;2023-05-07T09:55:21;2.42;;;1.50;;
10132;SDS011;5106;50.926;7.080;2023-05-07T09:57:51;2.42;;;1.50;;
10132;SDS011;5106;50.926;7.080;2023-05-07T10:00:21;3.22;;;1.65;;
10132;SDS011;5106;50.926;7.080;2023-05-07T10:02:48;4.38;;;1.70;;
10132;SDS011;5106;50.926;7.080;2023-05-07T10:05:16;3.38;;;1.63;;
10132;SDS011;5106;50.926;7.080;2023-05-07T10:07:43;3.38;;;1.70;;
10132;SDS011;5106;50.926;7.080;2023-05-07T10:10:09;3.03;;;1.65;;
10132;SDS011;5106;50.926;7.080;2023-05-07T10:12:36;2.03;;;1.40;;
10132;SDS011;5106;50.926;7.080;2023-05-07T10:15:07;2.92;;;1.48;;
10132;SDS011;5106;50.926;7.080;2023-05-07T10:17:39;2.80;;;1.85;;
10132;SDS011;5106;50.926;7.080;2023-05-07T10:20:06;1.92;;;1.48;;
10132;SDS011;5106;50.926;7.080;2023-05-07T10:22:38;4.45;;;1.70;;
10132;SDS011;5106;50.926;7.080;2023-05-07T10:25:16;2.15;;;1.40;;
10132;SDS011;5106;50.926;7.080;2023-05-07T10:27:48;3.05;;;1.50;;
10132;SDS011;5106;50.926;7.080;2023-05-07T10:32:51;1.67;;;1.50;;
10132;SDS011;5106;50.926;7.080;2023-05-07T10:35:21;2.25;;;1.50;;
10132;SDS011;5106;50.926;7.080;2023-05-07T10:37:50;2.38;;;1.60;;
10132;SDS011;5106;50.926;7.080;2023-05-07T10:40:16;2.38;;;1.50;;
10132;SDS011;5106;50.926;7.080;2023-05-07T10:42:58;2.85;;;1.52;;
10132;SDS011;5106;50.926;7.080;2023-05-07T10:45:29;2.35;;;1.60;;
10132;SDS011;5106;50.926;7.080;2023-05-07T10:50:40;3.38;;;2.00;;
10132;SDS011;5106;50.926;7.080;2023-05-07T10:55:41;4.60;;;1.67;;
10132;SDS011;5106;50.926;7.080;2023-05-07T10:58:23;2.40;;;1.80;;
10132;SDS011;5106;50.926;7.080;2023-05-07T11:00:55;2.25;;;1.70;;
10132;SDS011;5106;50.926;7.080;2023-05-07T11:03:21;5.20;;;1.83;;
10132;SDS011;5106;50.926;7.080;2023-05-07T11:05:47;2.28;;;1.60;;
10132;SDS011;5106;50.926;7.080;2023-05-07T11:08:52;1.92;;;1.33;;
10132;SDS011;5106;50.926;7.080;2023-05-07T11:11:17;1.40;;;1.30;;
10132;SDS011;5106;50.926;7.080;2023-05-07T11:13:45;1.63;;;1.17;;
10132;SDS011;5106;50.926;7.080;2023-05-07T11:21:16;3.20;;;1.58;;
10132;SDS011;5106;50.926;7.080;2023-05-07T11:23:57;1.85;;;1.30;;
10132;SDS011;5106;50.926;7.080;2023-05-07T11:26:24;3.35;;;1.75;;
10132;SDS011;5106;50.926;7.080;2023-05-07T11:28:50;1.92;;;1.50;;
10132;SDS011;5106;50.926;7.080;2023-05-07T11:31:20;2.33;;;1.67;;
10132;SDS011;5106;50.926;7.080;2023-05-07T11:33:48;2.22;;;1.67;;
10132;SDS011;5106;50.926;7.080;2023-05-07T11:36:14;2.72;;;1.60;;
10132;SDS011;5106;50.926;7.080;2023-05-07T11:38:40;3.38;;;1.50;;
10132;SDS011;5106;50.926;7.080;2023-05-07T11:41:07;2.03;;;1.58;;
10132;SDS011;5106;50.926;7.080;2023-05-07T11:43:33;1.55;;;1.30;;
10132;SDS011;5106;50.926;7.080;2023-05-07T11:46:09;4.30;;;1.60;;
10132;SDS011;5106;50.926;7.080;2023-05-07T11:48:36;2.35;;;1.40;;
10132;SDS011;5106;50.926;7.080;2023-05-07T11:51:03;1.42;;;1.33;;
10132;SDS011;5106;50.926;7.080;2023-05-07T11:53:37;2.45;;;1.50;;
10132;SDS011;5106;50.926;7.080;2023-05-07T11:56:08;2.00;;;1.38;;
10132;SDS011;5106;50.926;7.080;2023-05-07T11:58:34;1.88;;;1.50;;
10132;SDS011;5106;50.926;7.080;2023-05-07T12:01:00;1.77;;;1.42;;
10132;SDS011;5106;50.926;7.080;2023-05-07T12:03:25;2.65;;;1.52;;
10132;SDS011;5106;50.926;7.080;2023-05-07T12:05:51;1.67;;;1.58;;
10132;SDS011;5106;50.926;7.080;2023-05-07T12:08:17;1.58;;;1.45;;
10132;SDS011;5106;50.926;7.080;2023-05-07T12:10:46;1.58;;;1.48;;
10132;SDS011;5106;50.926;7.080;2023-05-07T12:13:24;2.03;;;1.48;;
10132;SDS011;5106;50.926;7.080;2023-05-07T12:15:51;1.80;;;1.60;;
10132;SDS011;5106;50.926;7.080;2023-05-07T12:18:28;1.95;;;1.73;;
10132;SDS011;5106;50.926;7.080;2023-05-07T12:20:55;1.70;;;1.50;;
10132;SDS011;5106;50.926;7.080;2023-05-07T12:23:21;1.65;;;1.25;;
10132;SDS011;5106;50.926;7.080;2023-05-07T12:25:47;1.58;;;1.42;;
10132;SDS011;5106;50.926;7.080;2023-05-07T12:28:16;3.17;;;1.40;;
10132;SDS011;5106;50.926;7.080;2023-05-07T12:30:43;2.08;;;1.40;;
10132;SDS011;5106;50.926;7.080;2023-05-07T12:33:11;3.13;;;1.40;;
10132;SDS011;5106;50.926;7.080;2023-05-07T12:35:41;2.58;;;1.30;;
10132;SDS011;5106;50.926;7.080;2023-05-07T12:38:08;2.05;;;1.40;;
10132;SDS011;5106;50.926;7.080;2023-05-07T12:43:26;2.25;;;1.40;;
10132;SDS011;5106;50.926;7.080;2023-05-07T12:45:54;2.03;;;1.45;;
10132;SDS011;5106;50.926;7.080;2023-05-07T12:48:25;2.80;;;1.48;;
10132;SDS011;5106;50.926;7.080;2023-05-07T12:50:55;1.45;;;1.25;;
10132;SDS011;5106;50.926;7.080;2023-05-07T12:53:22;3.15;;;1.50;;
10132;SDS011;5106;50.926;7.080;2023-05-07T12:55:51;1.50;;;1.40;;
10132;SDS011;5106;50.926;7.080;2023-05-07T12:58:20;2.08;;;1.20;;
10132;SDS011;5106;50.926;7.080;2023-05-07T13:00:52;1.80;;;1.55;;
10132;SDS011;5106;50.926;7.080;2023-05-07T13:03:21;1.45;;;1.35;;
10132;SDS011;5106;50.926;7.080;2023-05-07T13:05:49;1.90;;;1.40;;
10132;SDS011;5106;50.926;7.080;2023-05-07T13:08:28;1.63;;;1.25;;
10132;SDS011;5106;50.926;7.080;2023-05-07T13:10:56;1.63;;;1.33;;
10132;SDS011;5106;50.926;7.080;2023-05-07T13:13:28;1.80;;;1.42;;
10132;SDS011;5106;50.926;7.080;2023-05-07T13:15:57;1.80;;;1.40;;
10132;SDS011;5106;50.926;7.080;2023-05-07T13:18:26;3.60;;;1.80;;
10132;SDS011;5106;50.926;7.080;2023-05-07T13:20:54;1.70;;;1.40;;
10132;SDS011;5106;50.926;7.080;2023-05-07T13:23:20;1.55;;;1.40;;
10132;SDS011;5106;50.926;7.080;2023-05-07T13:25:46;1.65;;;1.42;;
10132;SDS011;5106;50.926;7.080;2023-05-07T13:28:12;1.60;;;1.42;;
10132;SDS011;5106;50.926;7.080;2023-05-07T13:30:38;3.13;;;1.70;;
10132;SDS011;5106;50.926;7.080;2023-05-07T13:33:05;5.38;;;1.63;;
10132;SDS011;5106;50.926;7.080;2023-05-07T13:35:31;1.60;;;1.33;;
10132;SDS011;5106;50.926;7.080;2023-05-07T13:37:57;2.83;;;1.45;;
10132;SDS011;5106;50.926;7.080;2023-05-07T13:40:23;1.30;;;1.20;;
10132;SDS011;5106;50.926;7.080;2023-05-07T13:42:48;1.63;;;1.52;;
10132;SDS011;5106;50.926;7.080;2023-05-07T13:45:15;2.10;;;1.40;;
10132;SDS011;5106;50.926;7.080;2023-05-07T13:47:41;3.38;;;1.60;;
10132;SDS011;5106;50.926;7.080;2023-05-07T13:50:07;2.15;;;1.65;;
10132;SDS011;5106;50.926;7.080;2023-05-07T13:52:33;3.42;;;1.50;;
10132;SDS011;5106;50.926;7.080;2023-05-07T13:54:59;11.35;;;2.58;;
10132;SDS011;5106;50.926;7.080;2023-05-07T13:57:25;6.43;;;3.00;;
10132;SDS011;5106;50.926;7.080;2023-05-07T13:59:51;8.20;;;3.20;;
10132;SDS011;5106;50.926;7.080;2023-05-07T14:02:16;9.50;;;3.50;;
10132;SDS011;5106;50.926;7.080;2023-05-07T14:04:42;5.25;;;2.55;;
10132;SDS011;5106;50.926;7.080;2023-05-07T14:07:07;9.13;;;3.50;;
10132;SDS011;5106;50.926;7.080;2023-05-07T14:09:33;10.65;;;3.45;;
10132;SDS011;5106;50.926;7.080;2023-05-07T14:11:59;16.27;;;4.05;;
10132;SDS011;5106;50.926;7.080;2023-05-07T14:14:25;8.75;;;3.70;;
10132;SDS011;5106;50.926;7.080;2023-05-07T14:16:50;7.82;;;3.10;;
10132;SDS011;5106;50.926;7.080;2023-05-07T14:19:16;4.60;;;3.03;;
10132;SDS011;5106;50.926;7.080;2023-05-07T14:21:41;11.50;;;2.65;;
10132;SDS011;5106;50.926;7.080;2023-05-07T14:24:07;5.97;;;2.85;;
10132;SDS011;5106;50.926;7.080;2023-05-07T14:26:33;3.50;;;2.67;;
10132;SDS011;5106;50.926;7.080;2023-05-07T14:28:59;5.80;;;2.70;;
10132;SDS011;5106;50.926;7.080;2023-05-07T14:31:25;5.30;;;3.08;;
10132;SDS011;5106;50.926;7.080;2023-05-07T14:33:51;3.58;;;2.67;;
10132;SDS011;5106;50.926;7.080;2023-05-07T14:36:17;4.28;;;3.00;;
10132;SDS011;5106;50.926;7.080;2023-05-07T14:38:45;4.47;;;3.05;;
10132;SDS011;5106;50.926;7.080;2023-05-07T14:41:11;3.70;;;2.85;;
10132;SDS011;5106;50.926;7.080;2023-05-07T14:43:36;6.68;;;3.17;;
10132;SDS011;5106;50.926;7.080;2023-05-07T14:46:02;3.70;;;3.33;;
10132;SDS011;5106;50.926;7.080;2023-05-07T14:48:28;3.20;;;2.90;;
10132;SDS011;5106;50.926;7.080;2023-05-07T14:50:54;4.93;;;3.65;;
10132;SDS011;5106;50.926;7.080;2023-05-07T14:53:19;5.20;;;3.20;;
10132;SDS011;5106;50.926;7.080;2023-05-07T14:55:45;4.85;;;3.17;;
10132;SDS011;5106;50.926;7.080;2023-05-07T14:58:12;3.80;;;3.35;;
10132;SDS011;5106;50.926;7.080;2023-05-07T15:00:40;6.38;;;3.65;;
10132;SDS011;5106;50.926;7.080;2023-05-07T15:03:07;4.85;;;3.38;;
10132;SDS011;5106;50.926;7.080;2023-05-07T15:05:35;4.88;;;3.30;;
10132;SDS011;5106;50.926;7.080;2023-05-07T15:08:01;4.00;;;2.92;;
10132;SDS011;5106;50.926;7.080;2023-05-07T15:10:27;3.47;;;2.83;;
10132;SDS011;5106;50.926;7.080;2023-05-07T15:12:53;3.70;;;2.95;;